Time;durP1;ratioP1;P1;durP2;ratioP2;P2;SDS_P1;SDS_P2;PMS_P1;PMS_P2;Temp;Humidity;BMP_temperature;BMP_pressure;BME280_temperature;BME280_humidity;BME280_pressure;Samples;Min_cycle;Max_cycle;Signal;HPM_P1;HPM_P2
2023/04/27 00:00:31;;;;;;;;;;;;;;;9.89;70.65;100268.44;4962306;28;19922;-89
2023/04/27 00:02:58;;;;;;;;;;;;;;;9.76;71.00;100265.41;4965559;28;19929;-88
2023/04/27 00:05:25;;;;;;;;;;;;;;;9.81;70.73;100267.59;4966649;28;19910;-93
2023/04/27 00:07:52;;;;;;;;;;;;;;;9.80;70.65;100263.22;4965535;28;19914;-90
2023/04/27 00:10:17;;;;;;;;;;;;;;;9.82;71.14;100263.91;5001390;28;19948;-90
2023/04/27 00:12:45;;;;;;;;;;;;;;;9.73;71.27;100260.38;4981594;28;19921;-91
2023/04/27 00:15:11;;;;;;;;;;;;;;;9.78;71.43;100255.34;4964968;28;19926;-92
2023/04/27 00:17:37;;;;;;;;;;;;;;;9.66;71.30;100256.66;4972709;28;19932;-90
2023/04/27 00:20:04;;;;;;;;;;;;;;;9.59;71.04;100255.66;4969317;28;20401;-90
2023/04/27 00:22:29;;;;;;;;;;;;;;;9.49;70.89;100259.31;4968942;28;19956;-90
2023/04/27 00:24:57;;;;;;;;;;;;;;;9.45;70.39;100249.06;4962948;28;19934;-91
2023/04/27 00:27:32;;;;;;;;;;;;;;;9.45;69.90;100265.16;4974903;28;19952;-90
2023/04/27 00:30:00;;;;;;;;;;;;;;;9.43;69.08;100265.31;4984739;28;19925;-89
2023/04/27 00:32:27;;;;;;;;;;;;;;;9.37;68.58;100246.38;4970259;28;19922;-92
2023/04/27 00:34:55;;;;;;;;;;;;;;;9.38;68.31;100245.34;4948954;28;20005;-89
2023/04/27 00:37:20;;;;;;;;;;;;;;;9.31;68.25;100255.91;4967089;28;19972;-88
2023/04/27 00:39:51;;;;;;;;;;;;;;;9.17;68.41;100243.94;4952321;28;19953;-91
2023/04/27 00:42:19;;;;;;;;;;;;;;;9.23;68.21;100253.19;4981539;28;19925;-91
2023/04/27 00:44:46;;;;;;;;;;;;;;;9.18;68.21;100255.53;4966869;28;19932;-87
2023/04/27 00:47:12;;;;;;;;;;;;;;;9.17;68.26;100264.56;4964144;28;19926;-89
2023/04/27 00:49:39;;;;;;;;;;;;;;;9.12;67.70;100248.13;4977415;28;19933;-90
2023/04/27 00:52:04;;;;;;;;;;;;;;;9.12;67.43;100246.28;4967752;28;19921;-91
2023/04/27 00:54:32;;;;;;;;;;;;;;;9.09;66.92;100257.34;4971943;28;19921;-90
2023/04/27 00:56:59;;;;;;;;;;;;;;;9.09;66.73;100247.44;4973039;28;20020;-91
2023/04/27 00:59:24;;;;;;;;;;;;;;;9.14;65.70;100264.91;4973101;28;19929;-91
2023/04/27 01:01:55;;;;;;;;;;;;;;;9.18;65.60;100285.03;4974240;28;19922;-93
2023/04/27 01:04:22;;;;;;;;;;;;;;;9.08;65.80;100277.09;4972655;28;19922;-91
2023/04/27 01:06:47;;;;;;;;;;;;;;;9.08;64.65;100283.31;4974668;28;19980;-90
2023/04/27 01:09:13;;;;;;;;;;;;;;;8.98;64.76;100277.22;4959070;28;19926;-89
2023/04/27 01:11:44;;;;;;;;;;;;;;;9.09;65.09;100297.56;4978990;28;19930;-90
2023/04/27 01:14:11;;;;;;;;;;;;;;;9.00;64.04;100291.31;5001053;28;19918;-91
2023/04/27 01:16:39;;;;;;;;;;;;;;;8.96;64.01;100310.56;4981589;28;19937;-90
2023/04/27 01:19:11;;;;;;;;;;;;;;;8.93;63.56;100314.41;4979169;28;19928;-89
2023/04/27 01:21:39;;;;;;;;;;;;;;;8.97;63.08;100307.72;4999577;28;20247;-92
2023/04/27 01:24:08;;;;;;;;;;;;;;;8.83;63.43;100305.63;4953014;28;19953;-89
2023/04/27 01:26:34;;;;;;;;;;;;;;;8.86;63.52;100310.66;4982526;28;19926;-87
2023/04/27 01:28:59;;;;;;;;;;;;;;;8.82;63.81;100303.94;4966943;28;20044;-88
2023/04/27 01:31:28;;;;;;;;;;;;;;;8.83;64.06;100284.19;4952137;28;19929;-87
2023/04/27 01:33:54;;;;;;;;;;;;;;;8.79;64.64;100288.19;4953458;28;19938;-89
2023/04/27 01:36:30;;;;;;;;;;;;;;;8.72;65.29;100297.84;4977474;28;20380;-93
2023/04/27 01:38:59;;;;;;;;;;;;;;;8.72;65.64;100287.13;4966445;28;20322;-93
2023/04/27 01:41:29;;;;;;;;;;;;;;;8.74;65.50;100285.13;4975425;28;19937;-89
2023/04/27 01:43:56;;;;;;;;;;;;;;;8.70;65.70;100278.41;4951878;28;19948;-91
2023/04/27 01:46:31;;;;;;;;;;;;;;;8.58;65.93;100296.59;4980167;28;19922;-89
2023/04/27 01:48:57;;;;;;;;;;;;;;;8.59;66.13;100288.41;4987946;28;20383;-89
2023/04/27 01:51:24;;;;;;;;;;;;;;;8.53;65.94;100299.72;5001922;28;19948;-92
2023/04/27 01:53:51;;;;;;;;;;;;;;;8.50;65.97;100296.50;4976055;28;19953;-90
2023/04/27 01:56:16;;;;;;;;;;;;;;;8.44;65.97;100292.63;4981800;28;19921;-92
2023/04/27 01:58:41;;;;;;;;;;;;;;;8.34;65.94;100297.22;4988902;28;19921;-89
2023/04/27 02:01:07;;;;;;;;;;;;;;;8.31;65.47;100265.38;4972400;28;19930;-88
2023/04/27 02:03:36;;;;;;;;;;;;;;;8.28;65.49;100265.69;4984841;28;20009;-90
2023/04/27 02:06:02;;;;;;;;;;;;;;;8.21;65.60;100284.22;4980080;28;19940;-89
2023/04/27 02:08:27;;;;;;;;;;;;;;;8.18;65.23;100280.00;4975346;28;19929;-92
2023/04/27 02:10:52;;;;;;;;;;;;;;;8.17;65.16;100256.91;4956620;28;19972;-92
2023/04/27 02:13:25;;;;;;;;;;;;;;;8.10;65.09;100261.22;4974812;28;20107;-91
2023/04/27 02:15:52;;;;;;;;;;;;;;;8.11;65.15;100270.91;4971813;28;20270;-92
2023/04/27 02:18:19;;;;;;;;;;;;;;;8.05;65.31;100266.16;4996254;28;20338;-92
2023/04/27 02:20:45;;;;;;;;;;;;;;;8.03;65.22;100292.28;4961358;28;19930;-92
2023/04/27 02:23:11;;;;;;;;;;;;;;;8.00;65.08;100301.44;4993005;28;19928;-90
2023/04/27 02:25:41;;;;;;;;;;;;;;;7.91;65.08;100269.38;4957180;28;19972;-89
2023/04/27 02:28:31;;;;;;;;;;;;;;;7.89;65.16;100293.66;4995151;28;19988;-91
2023/04/27 02:30:59;;;;;;;;;;;;;;;7.91;65.01;100288.94;4978420;28;20039;-90
2023/04/27 02:33:26;;;;;;;;;;;;;;;7.85;64.80;100286.91;4981466;28;20252;-90
2023/04/27 02:35:52;;;;;;;;;;;;;;;7.88;64.63;100299.13;4973274;28;19965;-91
2023/04/27 02:38:22;;;;;;;;;;;;;;;7.81;64.92;100290.88;5010357;28;19918;-88
2023/04/27 02:40:55;;;;;;;;;;;;;;;7.84;64.77;100298.59;4979558;28;19969;-89
2023/04/27 02:43:21;;;;;;;;;;;;;;;7.79;64.62;100240.16;4996263;28;19913;-86
2023/04/27 02:45:49;;;;;;;;;;;;;;;7.86;64.47;100279.72;4992085;28;19930;-89
2023/04/27 02:48:18;;;;;;;;;;;;;;;7.82;64.54;100303.28;5005004;28;19965;-89
2023/04/27 02:50:43;;;;;;;;;;;;;;;7.90;64.31;100297.16;4985937;28;19929;-89
2023/04/27 02:53:12;;;;;;;;;;;;;;;7.80;64.83;100289.22;4971749;28;19961;-89
2023/04/27 02:55:40;;;;;;;;;;;;;;;7.81;64.96;100280.16;4982110;28;19922;-91
2023/04/27 02:58:08;;;;;;;;;;;;;;;7.79;65.00;100290.19;4966849;28;19982;-91
2023/04/27 03:00:33;;;;;;;;;;;;;;;7.75;65.13;100289.66;4963840;28;20000;-90
2023/04/27 03:03:00;;;;;;;;;;;;;;;7.77;65.04;100303.72;4979465;28;19932;-90
2023/04/27 03:05:30;;;;;;;;;;;;;;;7.79;64.21;100291.00;4983178;28;19922;-89
2023/04/27 03:07:58;;;;;;;;;;;;;;;7.79;63.96;100300.88;4962197;28;19964;-89
2023/04/27 03:10:26;;;;;;;;;;;;;;;7.78;63.58;100300.06;4978977;28;19950;-93
2023/04/27 03:12:58;;;;;;;;;;;;;;;7.85;63.40;100300.28;4991004;28;20322;-91
2023/04/27 03:15:27;;;;;;;;;;;;;;;7.81;63.52;100312.28;4983898;28;19964;-95
2023/04/27 03:17:55;;;;;;;;;;;;;;;7.88;63.36;100299.13;4960890;28;19929;-92
2023/04/27 03:20:25;;;;;;;;;;;;;;;7.90;63.38;100319.41;4975066;28;19961;-93
2023/04/27 03:22:52;;;;;;;;;;;;;;;7.88;63.42;100312.53;4994250;28;19948;-91
2023/04/27 03:25:28;;;;;;;;;;;;;;;7.94;63.29;100311.94;4994990;28;19930;-90
2023/04/27 03:27:59;;;;;;;;;;;;;;;8.00;63.15;100330.03;4980795;28;19922;-91
2023/04/27 03:30:27;;;;;;;;;;;;;;;7.92;63.38;100322.78;4993481;28;19926;-89
2023/04/27 03:33:02;;;;;;;;;;;;;;;8.01;63.23;100321.88;4992341;28;19937;-90
2023/04/27 03:35:30;;;;;;;;;;;;;;;8.06;62.86;100333.97;4983531;28;20050;-88
2023/04/27 03:37:59;;;;;;;;;;;;;;;8.01;62.90;100323.72;4988966;28;19988;-89
2023/04/27 03:40:27;;;;;;;;;;;;;;;7.99;63.18;100317.66;4988223;28;19961;-90
2023/04/27 03:43:01;;;;;;;;;;;;;;;8.03;63.76;100343.13;4969142;28;20387;-89
2023/04/27 03:45:30;;;;;;;;;;;;;;;8.08;63.78;100348.00;4970178;28;19925;-88
2023/04/27 03:48:07;;;;;;;;;;;;;;;8.10;63.33;100330.81;4985898;28;20004;-89
2023/04/27 03:50:32;;;;;;;;;;;;;;;8.12;63.51;100339.53;4977094;28;19937;-89
2023/04/27 03:53:03;;;;;;;;;;;;;;;8.06;63.68;100340.16;4971570;28;20355;-90
2023/04/27 03:55:33;;;;;;;;;;;;;;;8.04;63.79;100344.81;4956546;28;19925;-89
2023/04/27 03:58:09;;;;;;;;;;;;;;;8.09;63.92;100355.06;4989221;28;19917;-90
2023/04/27 04:00:36;;;;;;;;;;;;;;;8.11;63.88;100335.19;4986098;28;19976;-88
2023/04/27 04:03:02;;;;;;;;;;;;;;;8.13;62.93;100357.28;4957244;28;19922;-89
2023/04/27 04:05:29;;;;;;;;;;;;;;;8.10;63.18;100335.31;4991469;28;19926;-90
2023/04/27 04:07:55;;;;;;;;;;;;;;;8.15;62.67;100366.00;4992802;28;19968;-88
2023/04/27 04:10:22;;;;;;;;;;;;;;;8.15;62.25;100339.25;4985856;28;19934;-85
2023/04/27 04:12:47;;;;;;;;;;;;;;;8.23;62.42;100390.19;4967632;28;19937;-87
2023/04/27 04:15:13;;;;;;;;;;;;;;;8.20;62.30;100385.13;4969052;28;19922;-86
2023/04/27 04:17:38;;;;;;;;;;;;;;;8.20;62.73;100376.28;4959737;28;19922;-84
2023/04/27 04:20:08;;;;;;;;;;;;;;;8.35;62.60;100361.34;4985771;28;20425;-88
2023/04/27 04:22:34;;;;;;;;;;;;;;;8.43;63.05;100357.94;4969341;28;19925;-85
2023/04/27 04:25:00;;;;;;;;;;;;;;;8.44;61.75;100363.13;4968028;28;19929;-87
2023/04/27 04:27:26;;;;;;;;;;;;;;;8.46;63.06;100395.13;4967470;28;20307;-87
2023/04/27 04:29:51;;;;;;;;;;;;;;;8.50;62.26;100360.81;4983605;28;19984;-88
2023/04/27 04:32:18;;;;;;;;;;;;;;;8.53;61.15;100366.72;4969314;28;19930;-89
2023/04/27 04:34:50;;;;;;;;;;;;;;;8.57;61.07;100373.47;4970475;28;20036;-88
2023/04/27 04:37:17;;;;;;;;;;;;;;;8.65;60.37;100376.19;4984805;28;19944;-92
2023/04/27 05:25:42;;;;;;;;;;;;;;;8.94;60.44;100449.28;5410865;22;19930;-90
2023/04/27 05:28:09;;;;;;;;;;;;;;;8.96;60.42;100453.50;4971248;28;20351;-89
2023/04/27 05:30:40;;;;;;;;;;;;;;;8.97;60.40;100473.13;4980645;28;19954;-91
2023/04/27 05:33:06;;;;;;;;;;;;;;;9.23;59.86;100475.84;4960322;28;19926;-91
2023/04/27 05:35:40;;;;;;;;;;;;;;;9.21;59.45;100475.16;4986224;28;19929;-88
2023/04/27 05:38:06;;;;;;;;;;;;;;;9.26;59.50;100475.53;4986173;28;19944;-88
2023/04/27 05:40:32;;;;;;;;;;;;;;;9.38;58.96;100470.72;4985152;28;20049;-88
2023/04/27 05:43:06;;;;;;;;;;;;;;;9.46;58.63;100484.22;4992854;28;19964;-90
2023/04/27 05:45:32;;;;;;;;;;;;;;;9.61;57.96;100487.16;4972124;28;20024;-89
2023/04/27 05:48:04;;;;;;;;;;;;;;;9.76;57.79;100488.22;4986566;28;19940;-91
2023/04/27 05:50:31;;;;;;;;;;;;;;;9.88;56.86;100513.81;4982885;28;19956;-90
2023/04/27 05:52:56;;;;;;;;;;;;;;;9.94;56.91;100517.69;4961018;28;19921;-89
2023/04/27 05:55:23;;;;;;;;;;;;;;;9.99;57.09;100509.16;4976051;28;19992;-88
2023/04/27 06:02:58;;;;;;;;;;;;;;;10.40;55.45;100522.81;5425309;23;19937;-89
2023/04/27 06:05:28;;;;;;;;;;;;;;;10.60;54.48;100532.25;4975805;28;19980;-90
2023/04/27 06:07:54;;;;;;;;;;;;;;;10.60;54.27;100548.38;4975327;28;19972;-90
2023/04/27 06:10:23;;;;;;;;;;;;;;;10.71;54.03;100531.94;4963818;28;19922;-91
2023/04/27 06:12:54;;;;;;;;;;;;;;;10.89;53.60;100539.03;4999604;28;20064;-92
2023/04/27 06:15:19;;;;;;;;;;;;;;;10.80;52.89;100543.56;4995783;28;19918;-90
2023/04/27 06:17:46;;;;;;;;;;;;;;;10.99;52.56;100542.41;4983380;28;19990;-90
2023/04/27 06:20:11;;;;;;;;;;;;;;;11.05;52.32;100557.91;5008435;28;20088;-89
2023/04/27 06:22:37;;;;;;;;;;;;;;;11.23;51.33;100548.81;4983997;28;19945;-91
2023/04/27 06:25:08;;;;;;;;;;;;;;;11.39;51.05;100556.88;4964545;28;19980;-89
2023/04/27 06:27:33;;;;;;;;;;;;;;;11.64;50.17;100567.66;4991645;28;19921;-90
2023/04/27 06:29:59;;;;;;;;;;;;;;;11.86;49.52;100566.94;4952509;28;19929;-89
2023/04/27 06:32:24;;;;;;;;;;;;;;;12.24;48.91;100580.66;4985667;28;20309;-89
2023/04/27 06:34:51;;;;;;;;;;;;;;;12.65;48.34;100573.25;4982004;28;20655;-89
2023/04/27 06:37:22;;;;;;;;;;;;;;;12.99;46.43;100573.88;4991208;28;19929;-90
2023/04/27 06:39:48;;;;;;;;;;;;;;;13.12;44.87;100590.34;4986383;28;19918;-89
2023/04/27 06:42:14;;;;;;;;;;;;;;;13.27;44.85;100591.28;4982922;28;19921;-90
2023/04/27 06:44:41;;;;;;;;;;;;;;;13.44;44.42;100583.06;4970848;28;20020;-89
2023/04/27 06:47:06;;;;;;;;;;;;;;;13.43;44.78;100573.25;4971765;28;19957;-89
2023/04/27 06:49:32;;;;;;;;;;;;;;;13.60;44.62;100580.22;4995137;28;19940;-90
2023/04/27 06:51:58;;;;;;;;;;;;;;;13.80;44.14;100590.50;4975388;28;19929;-90
2023/04/27 06:54:26;;;;;;;;;;;;;;;13.92;43.47;100594.41;4967683;28;20383;-89
2023/04/27 06:56:53;;;;;;;;;;;;;;;13.47;44.64;100585.38;4989464;28;19975;-90
2023/04/27 06:59:20;;;;;;;;;;;;;;;13.63;44.45;100587.09;4974274;28;20008;-90
2023/04/27 07:01:46;;;;;;;;;;;;;;;13.58;44.07;100587.66;4992694;28;19928;-88
2023/04/27 07:04:12;;;;;;;;;;;;;;;13.66;43.42;100584.03;4970986;28;19922;-89
2023/04/27 07:06:37;;;;;;;;;;;;;;;13.15;44.34;100600.75;4967997;28;19940;-88
2023/04/27 07:09:04;;;;;;;;;;;;;;;13.43;44.31;100597.56;4994521;28;20305;-90
2023/04/27 07:11:30;;;;;;;;;;;;;;;13.51;44.05;100590.25;4969638;28;20183;-89
2023/04/27 07:13:57;;;;;;;;;;;;;;;13.37;44.43;100599.13;4969546;28;19964;-88
2023/04/27 07:16:23;;;;;;;;;;;;;;;13.30;44.54;100590.91;4975756;28;19924;-89
2023/04/27 07:18:48;;;;;;;;;;;;;;;13.70;43.91;100588.06;4990382;28;20287;-88
2023/04/27 07:21:15;;;;;;;;;;;;;;;13.79;43.71;100588.78;4988410;28;19925;-89
2023/04/27 07:23:41;;;;;;;;;;;;;;;13.87;43.34;100583.31;4992082;28;19961;-87
2023/04/27 07:26:07;;;;;;;;;;;;;;;14.03;43.15;100588.56;4973369;28;19917;-88
2023/04/27 07:28:34;;;;;;;;;;;;;;;13.84;43.49;100583.69;4992319;28;19921;-88
2023/04/27 07:31:00;;;;;;;;;;;;;;;13.94;41.79;100586.97;4966456;28;19948;-88
2023/04/27 07:33:26;;;;;;;;;;;;;;;14.13;41.47;100572.91;4965644;28;19921;-88
2023/04/27 07:35:55;;;;;;;;;;;;;;;14.28;41.06;100580.16;4973665;28;20001;-88
2023/04/27 07:38:22;;;;;;;;;;;;;;;14.22;40.64;100570.13;4951550;28;19980;-85
2023/04/27 07:40:51;;;;;;;;;;;;;;;15.13;39.03;100568.72;4990288;28;20448;-94
2023/04/27 07:43:16;;;;;;;;;;;;;;;15.13;38.97;100557.06;4983711;28;20259;-90
2023/04/27 07:45:49;;;;;;;;;;;;;;;16.13;37.66;100552.44;4975522;28;19925;-91
2023/04/27 07:48:14;;;;;;;;;;;;;;;17.39;35.06;100547.41;5000675;28;20370;-88
2023/04/27 07:50:42;;;;;;;;;;;;;;;17.31;33.87;100539.47;4976387;28;19931;-88
2023/04/27 07:53:08;;;;;;;;;;;;;;;17.23;34.23;100550.53;4989427;28;20438;-90
2023/04/27 07:55:34;;;;;;;;;;;;;;;17.78;33.21;100540.28;4987815;28;20019;-89
2023/04/27 07:58:00;;;;;;;;;;;;;;;17.63;32.54;100537.81;4967251;28;19918;-88
2023/04/27 08:00:31;;;;;;;;;;;;;;;17.50;32.55;100535.09;4984261;28;20008;-89
2023/04/27 08:02:56;;;;;;;;;;;;;;;17.38;32.99;100528.63;4991608;28;19980;-91
2023/04/27 08:05:24;;;;;;;;;;;;;;;17.89;32.32;100520.66;4990465;28;19949;-91
2023/04/27 08:07:52;;;;;;;;;;;;;;;18.04;31.26;100517.69;4974446;28;20364;-90
2023/04/27 08:10:18;;;;;;;;;;;;;;;17.82;31.51;100519.00;4960558;28;19937;-95
2023/04/27 08:12:45;;;;;;;;;;;;;;;17.46;31.82;100514.81;4975370;28;19985;-88
2023/04/27 08:15:11;;;;;;;;;;;;;;;17.13;32.67;100509.38;4982554;28;19922;-88
2023/04/27 08:17:39;;;;;;;;;;;;;;;17.06;33.58;100514.78;4962764;28;19925;-89
2023/04/27 08:20:05;;;;;;;;;;;;;;;17.39;32.78;100508.53;4989538;28;19923;-88
2023/04/27 08:22:32;;;;;;;;;;;;;;;17.01;32.86;100520.84;4995680;28;19926;-90
2023/04/27 08:24:58;;;;;;;;;;;;;;;17.19;32.64;100527.56;4985505;28;19922;-90
2023/04/27 08:27:23;;;;;;;;;;;;;;;16.47;33.78;100521.72;4987479;28;19929;-89
2023/04/27 08:29:49;;;;;;;;;;;;;;;16.63;33.62;100505.06;4989956;28;20049;-89
2023/04/27 08:32:15;;;;;;;;;;;;;;;16.46;32.77;100520.06;5002969;28;19965;-90
2023/04/27 08:34:43;;;;;;;;;;;;;;;16.98;31.80;100545.72;4979820;28;19930;-87
2023/04/27 08:37:09;;;;;;;;;;;;;;;17.39;30.71;100525.66;4993437;28;20012;-88
2023/04/27 08:39:35;;;;;;;;;;;;;;;17.72;30.39;100552.00;4973037;28;20453;-90
2023/04/27 08:42:00;;;;;;;;;;;;;;;17.98;30.29;100540.31;4976769;28;19985;-90
2023/04/27 08:44:26;;;;;;;;;;;;;;;18.27;30.04;100555.28;4978973;28;20488;-88
2023/04/27 08:46:52;;;;;;;;;;;;;;;18.70;29.50;100546.50;5005919;28;19926;-87
2023/04/27 08:49:19;;;;;;;;;;;;;;;19.55;28.65;100545.34;4972678;28;19926;-89
2023/04/27 08:51:45;;;;;;;;;;;;;;;20.07;27.29;100564.22;4991521;28;19918;-91
2023/04/27 08:54:12;;;;;;;;;;;;;;;20.51;26.79;100543.97;4977034;28;19926;-92
2023/04/27 08:56:39;;;;;;;;;;;;;;;21.33;25.45;100556.28;4976147;28;20403;-93
2023/04/27 08:59:31;;;;;;;;;;;;;;;21.78;24.98;100553.06;4975377;28;19988;-91
2023/04/27 09:01:57;;;;;;;;;;;;;;;20.96;26.19;100557.25;4980893;28;19921;-90
2023/04/27 09:04:23;;;;;;;;;;;;;;;21.97;25.21;100579.22;4971618;28;20314;-92
2023/04/27 09:07:02;;;;;;;;;;;;;;;23.02;24.11;100573.81;4994852;28;19922;-90
2023/04/27 09:09:32;;;;;;;;;;;;;;;23.67;23.26;100562.31;4976525;28;19930;-89
2023/04/27 09:12:01;;;;;;;;;;;;;;;23.01;23.53;100561.16;4996693;28;19917;-89
2023/04/27 09:14:29;;;;;;;;;;;;;;;23.04;23.62;100583.44;4981469;28;19984;-89
2023/04/27 09:16:58;;;;;;;;;;;;;;;22.97;24.13;100583.56;4999949;28;19933;-90
2023/04/27 09:19:28;;;;;;;;;;;;;;;23.56;23.18;100585.19;4973985;28;20042;-94
2023/04/27 09:22:20;;;;;;;;;;;;;;;23.12;23.64;100599.47;4984600;28;19929;-92
2023/04/27 09:24:55;;;;;;;;;;;;;;;23.12;23.68;100590.44;5004278;28;19937;-87
2023/04/27 09:27:23;;;;;;;;;;;;;;;23.38;23.56;100598.03;4997280;28;19926;-90
2023/04/27 09:29:48;;;;;;;;;;;;;;;23.35;23.67;100606.75;4974029;28;20368;-90
2023/04/27 09:32:17;;;;;;;;;;;;;;;22.04;24.02;100601.81;4991966;28;20020;-87
2023/04/27 09:34:44;;;;;;;;;;;;;;;22.03;24.30;100611.13;4996329;28;19933;-89
2023/04/27 09:37:11;;;;;;;;;;;;;;;22.15;24.19;100611.13;4979272;28;19928;-92
2023/04/27 09:39:37;;;;;;;;;;;;;;;23.61;22.93;100598.97;4973734;28;20019;-91
2023/04/27 09:42:05;;;;;;;;;;;;;;;23.08;22.80;100605.69;4989584;28;19921;-88
2023/04/27 09:44:32;;;;;;;;;;;;;;;22.00;24.23;100614.31;4954383;28;19930;-92
2023/04/27 09:46:58;;;;;;;;;;;;;;;21.05;25.39;100598.75;4980139;28;19935;-88
2023/04/27 09:49:25;;;;;;;;;;;;;;;20.44;26.14;100608.75;4992218;28;19968;-91
2023/04/27 09:51:53;;;;;;;;;;;;;;;21.31;25.38;100597.53;4948964;28;19940;-89
2023/04/27 09:54:20;;;;;;;;;;;;;;;22.88;23.88;100615.16;4978367;28;19922;-90
2023/04/27 09:57:12;;;;;;;;;;;;;;;22.96;23.45;100614.78;4953056;28;19929;-87
2023/04/27 09:59:47;;;;;;;;;;;;;;;23.50;22.94;100613.59;4980501;28;19922;-88
2023/04/27 10:02:16;;;;;;;;;;;;;;;22.84;23.63;100599.47;4961335;28;19953;-91
2023/04/27 10:04:54;;;;;;;;;;;;;;;22.69;23.71;100600.81;4982895;28;19924;-90
2023/04/27 10:07:20;;;;;;;;;;;;;;;23.67;23.15;100605.38;4994722;28;20255;-90
2023/04/27 10:09:52;;;;;;;;;;;;;;;24.53;22.74;100600.38;4977479;28;19922;-93
2023/04/27 10:12:22;;;;;;;;;;;;;;;24.21;22.35;100603.78;4995872;28;19928;-86
2023/04/27 10:14:49;;;;;;;;;;;;;;;24.75;21.94;100599.56;4976206;28;20379;-90
2023/04/27 10:17:34;;;;;;;;;;;;;;;24.47;22.02;100603.31;4970635;28;19917;-90
2023/04/27 10:20:12;;;;;;;;;;;;;;;23.61;22.26;100596.22;4973278;28;19929;-96
2023/04/27 10:22:41;;;;;;;;;;;;;;;22.89;22.97;100608.59;4996877;28;20008;-88
2023/04/27 10:25:24;;;;;;;;;;;;;;;25.08;21.00;100606.00;4987080;28;19918;-85
2023/04/27 10:27:52;;;;;;;;;;;;;;;26.37;20.06;100603.22;5009892;28;19926;-88
2023/04/27 10:30:22;;;;;;;;;;;;;;;28.14;18.95;100605.78;5004032;28;19948;-89
2023/04/27 10:33:07;;;;;;;;;;;;;;;28.70;18.23;100594.56;5002704;28;19980;-87
2023/04/27 10:35:32;;;;;;;;;;;;;;;26.88;19.11;100604.31;4975628;28;19918;-91
2023/04/27 10:38:05;;;;;;;;;;;;;;;27.73;18.40;100600.31;4994051;28;19941;-89
2023/04/27 10:40:36;;;;;;;;;;;;;;;28.53;17.68;100597.69;4993328;28;19926;-88
2023/04/27 10:43:09;;;;;;;;;;;;;;;27.46;18.47;100593.09;4972775;28;19926;-89
2023/04/27 10:45:34;;;;;;;;;;;;;;;27.83;18.51;100605.84;4976870;28;19926;-91
2023/04/27 10:48:37;;;;;;;;;;;;;;;26.12;19.91;100599.22;4984304;28;20331;-89
2023/04/27 10:51:16;;;;;;;;;;;;;;;25.77;20.52;100603.34;4974091;28;19922;-91
2023/04/27 10:53:58;;;;;;;;;;;;;;;25.33;20.20;100587.00;4965773;28;20003;-91
2023/04/27 10:56:30;;;;;;;;;;;;;;;24.89;21.38;100592.59;4984457;28;19922;-91
2023/04/27 10:59:02;;;;;;;;;;;;;;;25.24;21.41;100594.09;4983145;28;19945;-89
2023/04/27 11:01:42;;;;;;;;;;;;;;;25.64;21.24;100590.88;4993897;28;20040;-90
2023/04/27 11:04:08;;;;;;;;;;;;;;;25.23;21.03;100586.91;4991236;28;19921;-88
2023/04/27 11:06:44;;;;;;;;;;;;;;;24.43;22.14;100583.75;4994023;28;19922;-91
2023/04/27 11:09:12;;;;;;;;;;;;;;;22.74;23.49;100576.25;4954412;28;19922;-92
2023/04/27 11:11:37;;;;;;;;;;;;;;;22.47;24.20;100586.09;4987871;28;19921;-92
2023/04/27 11:14:04;;;;;;;;;;;;;;;22.22;24.54;100581.75;4977583;28;20409;-91
2023/04/27 11:16:33;;;;;;;;;;;;;;;22.16;25.02;100576.34;4994696;28;19965;-89
2023/04/27 11:19:18;;;;;;;;;;;;;;;22.56;24.52;100581.91;4972481;28;19957;-90
2023/04/27 11:21:48;;;;;;;;;;;;;;;21.98;25.22;100582.78;4981915;28;19925;-90
2023/04/27 11:24:16;;;;;;;;;;;;;;;21.32;25.89;100576.50;4997473;28;19977;-88
2023/04/27 11:26:50;;;;;;;;;;;;;;;21.93;25.57;100578.03;4994936;28;20390;-90
2023/04/27 11:29:16;;;;;;;;;;;;;;;21.94;25.56;100579.69;4975039;28;20082;-90
2023/04/27 11:31:50;;;;;;;;;;;;;;;21.54;25.70;100585.84;4975800;28;19922;-92
2023/04/27 11:34:19;;;;;;;;;;;;;;;20.84;26.49;100592.72;4998198;28;19917;-91
2023/04/27 11:39:50;;;;;;;;;;;;;;;20.68;27.02;100593.34;4992335;28;19920;-92
2023/04/27 11:42:24;;;;;;;;;;;;;;;20.66;26.84;100558.06;4960841;28;19918;-90
2023/04/27 11:47:52;;;;;;;;;;;;;;;20.11;27.65;100584.50;5006635;28;19921;-88
2023/04/27 11:50:24;;;;;;;;;;;;;;;19.58;27.67;100578.47;5002324;28;19925;-90
2023/04/27 11:56:07;;;;;;;;;;;;;;;20.13;27.51;100580.50;4995613;28;19984;-90
2023/04/27 11:58:46;;;;;;;;;;;;;;;19.76;27.59;100595.97;4974823;28;19926;-87
2023/04/27 12:11:02;;;;;;;;;;;;;;;19.69;27.83;100598.78;5008326;28;20076;-90
2023/04/27 12:16:38;;;;;;;;;;;;;;;20.02;27.74;100601.19;5009666;28;20011;-90
2023/04/27 12:22:37;;;;;;;;;;;;;;;20.71;27.55;100592.06;5009103;28;20445;-92
2023/04/27 12:31:32;;;;;;;;;;;;;;;20.80;26.66;100586.06;4987721;28;20005;-90
2023/04/27 12:37:02;;;;;;;;;;;;;;;19.89;28.08;100604.03;4986893;28;20058;-88
2023/04/27 12:39:30;;;;;;;;;;;;;;;19.35;28.61;100600.03;4994547;28;20000;-92
2023/04/27 12:41:57;;;;;;;;;;;;;;;19.27;29.17;100606.59;4978548;28;19922;-91
2023/04/27 12:47:41;;;;;;;;;;;;;;;19.26;29.48;100612.25;5014951;28;19990;-89
2023/04/27 12:50:14;;;;;;;;;;;;;;;18.61;30.94;100610.44;4986458;28;19917;-89
2023/04/27 12:53:15;;;;;;;;;;;;;;;18.63;30.86;100613.78;4977419;28;19949;-88
2023/04/27 12:59:05;;;;;;;;;;;;;;;18.85;30.06;100619.00;4981098;28;19964;-93
2023/04/27 13:04:42;;;;;;;;;;;;;;;18.68;30.25;100619.44;4979676;28;19934;-93
2023/04/27 13:07:12;;;;;;;;;;;;;;;18.72;30.12;100628.84;4986251;28;19928;-91
2023/04/27 13:09:58;;;;;;;;;;;;;;;18.45;30.25;100616.34;4990888;28;19921;-91
2023/04/27 13:12:31;;;;;;;;;;;;;;;18.38;30.31;100626.41;4980622;28;19945;-92
2023/04/27 13:15:04;;;;;;;;;;;;;;;18.21;31.11;100631.50;4977364;28;19928;-91
2023/04/27 13:17:34;;;;;;;;;;;;;;;18.58;30.69;100631.81;4982853;28;20020;-95
2023/04/27 13:29:34;;;;;;;;;;;;;;;18.07;32.24;100636.09;4977015;28;20441;-91
2023/04/27 13:32:06;;;;;;;;;;;;;;;18.06;32.44;100643.44;4990521;28;19921;-91
2023/04/27 13:34:32;;;;;;;;;;;;;;;17.40;33.00;100646.94;4965460;28;19929;-91
2023/04/27 13:49:29;;;;;;;;;;;;;;;16.86;35.20;100645.09;4976231;28;19918;-92
2023/04/27 13:55:12;;;;;;;;;;;;;;;16.83;35.05;100653.63;4983449;28;20305;-91
2023/04/27 14:06:51;;;;;;;;;;;;;;;16.29;35.59;100644.34;4993959;28;20057;-90
2023/04/27 14:09:16;;;;;;;;;;;;;;;16.35;35.85;100648.13;4977128;28;19926;-91
2023/04/27 14:11:42;;;;;;;;;;;;;;;16.32;35.83;100648.50;4980618;28;19929;-89
2023/04/27 14:14:08;;;;;;;;;;;;;;;16.51;35.63;100652.41;4975972;28;19922;-87
2023/04/27 14:16:35;;;;;;;;;;;;;;;16.55;35.59;100649.09;4971341;28;19944;-91
2023/04/27 14:19:02;;;;;;;;;;;;;;;16.60;35.76;100651.19;4994021;28;20029;-90
2023/04/27 14:24:30;;;;;;;;;;;;;;;16.63;35.50;100657.06;4996256;28;19951;-88
2023/04/27 14:30:19;;;;;;;;;;;;;;;16.83;35.34;100657.22;4998229;28;19980;-90
2023/04/27 14:35:57;;;;;;;;;;;;;;;16.61;34.90;100664.56;4996183;28;20084;-92
2023/04/27 14:54:03;;;;;;;;;;;;;;;16.02;37.12;100670.44;5000872;28;19922;-92
2023/04/27 15:06:07;;;;;;;;;;;;;;;15.98;37.09;100669.16;5003281;28;19917;-89
2023/04/27 15:14:55;;;;;;;;;;;;;;;15.66;37.69;100689.47;4981112;28;20057;-91
2023/04/27 15:17:22;;;;;;;;;;;;;;;15.61;37.34;100681.91;4977676;28;19975;-92
2023/04/27 15:19:50;;;;;;;;;;;;;;;15.61;36.86;100684.63;4978001;28;19918;-91
2023/04/27 15:22:16;;;;;;;;;;;;;;;15.71;37.14;100685.19;4994250;28;19965;-92
2023/04/27 15:25:00;;;;;;;;;;;;;;;15.97;36.29;100678.34;4977622;28;20322;-91
2023/04/27 15:27:26;;;;;;;;;;;;;;;16.22;35.97;100682.28;4975077;28;19968;-92
2023/04/27 15:30:02;;;;;;;;;;;;;;;16.64;35.69;100682.31;4979406;28;19918;-94
2023/04/27 15:32:32;;;;;;;;;;;;;;;18.02;34.06;100682.16;4994085;28;19932;-94
2023/04/27 15:35:04;;;;;;;;;;;;;;;17.87;33.39;100688.63;4990668;28;20363;-90
2023/04/27 15:37:39;;;;;;;;;;;;;;;17.12;34.55;100690.53;4991718;28;19929;-96
2023/04/27 15:40:08;;;;;;;;;;;;;;;16.64;35.88;100685.03;4966677;28;20009;-89